Waukesha County Airport (UES)


Airport Diagram
Current Weather/Forecast (MVFR Conditions)
METAR KUES 271445Z 25010KT 10SM OVC020 M06/M12 A3000
TAF KUES 271455Z 2715/2812 25010KT P6SM BKN025 OVC060 FM271700 26011G22KT P6SM BKN045 FM271900 30012KT P6SM BKN030 FM272100 31013KT P6SM BKN040 FM272200 32013KT P6SM BKN030

All Charts
General
Chart Name Download
AIRPORT DIAGRAM
TAKEOFF MINIMUMS
ALTERNATE MINIMUMS

Departures
Chart Name Download
ACCRA FIVE (RNAV)
UECKR SIX (RNAV)

Arrivals
Chart Name Download
GOPAC TWO (RNAV)

Approaches
Chart Name Download
ILS OR LOC RWY 10
RNAV (GPS) RWY 10
RNAV (GPS) RWY 28
VOR-A